sensor_id;sensor_type;location;lat;lon;timestamp;P1;durP1;ratioP1;P2;durP2;ratioP2
20090;SDS011;10205;49.678;6.560;2023-02-23T00:01:36;10.55;;;8.10;;
20090;SDS011;10205;49.678;6.560;2023-02-23T00:04:06;8.93;;;7.75;;
20090;SDS011;10205;49.678;6.560;2023-02-23T00:06:34;8.35;;;7.55;;
20090;SDS011;10205;49.678;6.560;2023-02-23T00:09:02;8.63;;;7.72;;
20090;SDS011;10205;49.678;6.560;2023-02-23T00:11:37;8.10;;;7.32;;
20090;SDS011;10205;49.678;6.560;2023-02-23T00:14:09;9.30;;;8.30;;
20090;SDS011;10205;49.678;6.560;2023-02-23T00:16:36;8.30;;;7.40;;
20090;SDS011;10205;49.678;6.560;2023-02-23T00:19:09;11.07;;;9.60;;
20090;SDS011;10205;49.678;6.560;2023-02-23T00:21:38;8.55;;;7.68;;
20090;SDS011;10205;49.678;6.560;2023-02-23T00:24:09;9.43;;;7.78;;
20090;SDS011;10205;49.678;6.560;2023-02-23T00:26:40;8.52;;;7.70;;
20090;SDS011;10205;49.678;6.560;2023-02-23T00:29:10;8.98;;;8.07;;
20090;SDS011;10205;49.678;6.560;2023-02-23T00:31:41;9.80;;;7.70;;
20090;SDS011;10205;49.678;6.560;2023-02-23T00:34:11;10.55;;;9.27;;
20090;SDS011;10205;49.678;6.560;2023-02-23T00:36:41;9.38;;;8.15;;
20090;SDS011;10205;49.678;6.560;2023-02-23T00:39:10;9.35;;;7.78;;
20090;SDS011;10205;49.678;6.560;2023-02-23T00:41:46;9.75;;;8.73;;
20090;SDS011;10205;49.678;6.560;2023-02-23T00:44:13;12.88;;;8.82;;
20090;SDS011;10205;49.678;6.560;2023-02-23T00:46:41;9.70;;;8.27;;
20090;SDS011;10205;49.678;6.560;2023-02-23T00:49:15;12.70;;;9.10;;
20090;SDS011;10205;49.678;6.560;2023-02-23T00:51:42;11.65;;;9.55;;
20090;SDS011;10205;49.678;6.560;2023-02-23T00:54:13;10.77;;;8.73;;
20090;SDS011;10205;49.678;6.560;2023-02-23T00:56:42;10.40;;;8.88;;
20090;SDS011;10205;49.678;6.560;2023-02-23T00:59:10;12.20;;;9.98;;
20090;SDS011;10205;49.678;6.560;2023-02-23T01:01:38;11.35;;;8.98;;
20090;SDS011;10205;49.678;6.560;2023-02-23T01:04:06;9.73;;;8.50;;
20090;SDS011;10205;49.678;6.560;2023-02-23T01:06:35;9.60;;;8.60;;
20090;SDS011;10205;49.678;6.560;2023-02-23T01:09:05;9.52;;;8.52;;
20090;SDS011;10205;49.678;6.560;2023-02-23T01:11:36;9.45;;;8.27;;
20090;SDS011;10205;49.678;6.560;2023-02-23T01:14:05;9.82;;;8.45;;
20090;SDS011;10205;49.678;6.560;2023-02-23T01:16:33;11.93;;;10.23;;
20090;SDS011;10205;49.678;6.560;2023-02-23T01:19:03;9.88;;;8.82;;
20090;SDS011;10205;49.678;6.560;2023-02-23T01:21:31;10.80;;;9.00;;
20090;SDS011;10205;49.678;6.560;2023-02-23T01:24:02;10.05;;;8.85;;
20090;SDS011;10205;49.678;6.560;2023-02-23T01:26:32;11.07;;;8.98;;
20090;SDS011;10205;49.678;6.560;2023-02-23T01:29:04;13.98;;;11.88;;
20090;SDS011;10205;49.678;6.560;2023-02-23T01:31:35;12.18;;;10.48;;
20090;SDS011;10205;49.678;6.560;2023-02-23T01:34:06;10.82;;;9.55;;
20090;SDS011;10205;49.678;6.560;2023-02-23T01:36:40;9.32;;;8.25;;
20090;SDS011;10205;49.678;6.560;2023-02-23T01:39:10;11.10;;;9.85;;
20090;SDS011;10205;49.678;6.560;2023-02-23T01:41:39;12.48;;;9.88;;
20090;SDS011;10205;49.678;6.560;2023-02-23T01:47:42;11.00;;;9.23;;
20090;SDS011;10205;49.678;6.560;2023-02-23T01:50:09;13.40;;;11.27;;
20090;SDS011;10205;49.678;6.560;2023-02-23T01:52:36;12.90;;;10.77;;
20090;SDS011;10205;49.678;6.560;2023-02-23T01:55:04;12.73;;;9.70;;
20090;SDS011;10205;49.678;6.560;2023-02-23T01:57:37;13.23;;;10.63;;
20090;SDS011;10205;49.678;6.560;2023-02-23T02:00:07;14.38;;;11.10;;
20090;SDS011;10205;49.678;6.560;2023-02-23T02:02:39;11.27;;;9.73;;
20090;SDS011;10205;49.678;6.560;2023-02-23T02:05:06;12.38;;;10.45;;
20090;SDS011;10205;49.678;6.560;2023-02-23T02:07:38;10.65;;;9.55;;
20090;SDS011;10205;49.678;6.560;2023-02-23T02:10:13;12.73;;;10.65;;
20090;SDS011;10205;49.678;6.560;2023-02-23T02:12:57;12.88;;;11.30;;
20090;SDS011;10205;49.678;6.560;2023-02-23T02:15:26;11.73;;;10.40;;
20090;SDS011;10205;49.678;6.560;2023-02-23T02:18:05;11.02;;;9.35;;
20090;SDS011;10205;49.678;6.560;2023-02-23T02:27:42;11.48;;;10.27;;
20090;SDS011;10205;49.678;6.560;2023-02-23T02:31:03;12.65;;;10.32;;
20090;SDS011;10205;49.678;6.560;2023-02-23T02:34:24;11.40;;;10.13;;
20090;SDS011;10205;49.678;6.560;2023-02-23T02:40:43;13.10;;;10.82;;
20090;SDS011;10205;49.678;6.560;2023-02-23T02:43:21;11.23;;;9.50;;
20090;SDS011;10205;49.678;6.560;2023-02-23T02:45:59;11.70;;;9.88;;
20090;SDS011;10205;49.678;6.560;2023-02-23T02:48:36;10.88;;;9.68;;
20090;SDS011;10205;49.678;6.560;2023-02-23T02:51:13;11.60;;;10.18;;
20090;SDS011;10205;49.678;6.560;2023-02-23T02:53:52;10.80;;;9.68;;
20090;SDS011;10205;49.678;6.560;2023-02-23T02:56:30;11.07;;;9.80;;
20090;SDS011;10205;49.678;6.560;2023-02-23T02:59:04;10.80;;;9.30;;
20090;SDS011;10205;49.678;6.560;2023-02-23T03:01:51;10.18;;;9.15;;
20090;SDS011;10205;49.678;6.560;2023-02-23T03:04:36;10.48;;;9.32;;
20090;SDS011;10205;49.678;6.560;2023-02-23T03:07:24;12.85;;;9.35;;
20090;SDS011;10205;49.678;6.560;2023-02-23T03:10:18;11.65;;;10.07;;
20090;SDS011;10205;49.678;6.560;2023-02-23T03:13:18;9.88;;;8.88;;
20090;SDS011;10205;49.678;6.560;2023-02-23T03:16:20;10.82;;;9.73;;
20090;SDS011;10205;49.678;6.560;2023-02-23T03:19:13;11.20;;;9.50;;
20090;SDS011;10205;49.678;6.560;2023-02-23T03:22:06;9.85;;;8.85;;
20090;SDS011;10205;49.678;6.560;2023-02-23T03:25:03;10.60;;;8.95;;
20090;SDS011;10205;49.678;6.560;2023-02-23T03:27:59;10.68;;;8.85;;
20090;SDS011;10205;49.678;6.560;2023-02-23T03:30:57;10.68;;;8.77;;
20090;SDS011;10205;49.678;6.560;2023-02-23T03:33:54;10.43;;;9.02;;
20090;SDS011;10205;49.678;6.560;2023-02-23T03:36:46;12.57;;;9.25;;
20090;SDS011;10205;49.678;6.560;2023-02-23T03:39:38;10.57;;;9.15;;
20090;SDS011;10205;49.678;6.560;2023-02-23T03:42:29;10.27;;;9.18;;
20090;SDS011;10205;49.678;6.560;2023-02-23T03:45:22;10.25;;;9.15;;
20090;SDS011;10205;49.678;6.560;2023-02-23T03:48:11;11.38;;;9.50;;
20090;SDS011;10205;49.678;6.560;2023-02-23T03:51:02;10.50;;;8.70;;
20090;SDS011;10205;49.678;6.560;2023-02-23T03:53:52;11.18;;;9.43;;
20090;SDS011;10205;49.678;6.560;2023-02-23T03:56:43;10.15;;;8.70;;
20090;SDS011;10205;49.678;6.560;2023-02-23T03:59:33;11.00;;;9.68;;
20090;SDS011;10205;49.678;6.560;2023-02-23T04:02:27;11.20;;;9.27;;
20090;SDS011;10205;49.678;6.560;2023-02-23T04:05:17;11.43;;;8.75;;
20090;SDS011;10205;49.678;6.560;2023-02-23T04:08:05;9.45;;;8.40;;
20090;SDS011;10205;49.678;6.560;2023-02-23T04:10:57;9.82;;;8.43;;
20090;SDS011;10205;49.678;6.560;2023-02-23T04:13:48;9.88;;;8.77;;
20090;SDS011;10205;49.678;6.560;2023-02-23T04:16:24;10.93;;;8.65;;
20090;SDS011;10205;49.678;6.560;2023-02-23T04:18:57;10.25;;;8.98;;
20090;SDS011;10205;49.678;6.560;2023-02-23T04:21:25;10.35;;;9.20;;
20090;SDS011;10205;49.678;6.560;2023-02-23T04:23:52;11.00;;;9.73;;
20090;SDS011;10205;49.678;6.560;2023-02-23T04:26:19;10.27;;;9.18;;
20090;SDS011;10205;49.678;6.560;2023-02-23T04:28:47;9.55;;;8.50;;
20090;SDS011;10205;49.678;6.560;2023-02-23T04:31:18;9.18;;;8.27;;
20090;SDS011;10205;49.678;6.560;2023-02-23T04:33:47;9.05;;;8.07;;
20090;SDS011;10205;49.678;6.560;2023-02-23T04:36:16;8.93;;;8.02;;
20090;SDS011;10205;49.678;6.560;2023-02-23T04:38:43;9.27;;;8.32;;
20090;SDS011;10205;49.678;6.560;2023-02-23T04:41:10;9.55;;;7.80;;
20090;SDS011;10205;49.678;6.560;2023-02-23T04:43:37;8.95;;;8.02;;
20090;SDS011;10205;49.678;6.560;2023-02-23T04:46:04;8.70;;;7.80;;
20090;SDS011;10205;49.678;6.560;2023-02-23T04:48:32;9.57;;;8.18;;
20090;SDS011;10205;49.678;6.560;2023-02-23T04:51:00;8.52;;;7.70;;
20090;SDS011;10205;49.678;6.560;2023-02-23T04:53:29;9.18;;;7.85;;
20090;SDS011;10205;49.678;6.560;2023-02-23T04:55:56;9.80;;;8.18;;
20090;SDS011;10205;49.678;6.560;2023-02-23T04:58:23;9.18;;;7.90;;
20090;SDS011;10205;49.678;6.560;2023-02-23T05:00:51;9.20;;;7.90;;
20090;SDS011;10205;49.678;6.560;2023-02-23T05:03:18;8.25;;;7.43;;
20090;SDS011;10205;49.678;6.560;2023-02-23T05:05:45;8.32;;;7.25;;
20090;SDS011;10205;49.678;6.560;2023-02-23T05:08:12;9.43;;;8.47;;
20090;SDS011;10205;49.678;6.560;2023-02-23T05:10:41;11.07;;;8.63;;
20090;SDS011;10205;49.678;6.560;2023-02-23T05:13:08;9.32;;;8.13;;
20090;SDS011;10205;49.678;6.560;2023-02-23T05:15:35;9.23;;;8.23;;
20090;SDS011;10205;49.678;6.560;2023-02-23T05:18:03;8.00;;;7.05;;
20090;SDS011;10205;49.678;6.560;2023-02-23T05:20:31;8.02;;;6.78;;
20090;SDS011;10205;49.678;6.560;2023-02-23T05:22:58;9.05;;;7.70;;
20090;SDS011;10205;49.678;6.560;2023-02-23T05:25:26;7.93;;;7.13;;
20090;SDS011;10205;49.678;6.560;2023-02-23T05:27:54;7.30;;;6.43;;
20090;SDS011;10205;49.678;6.560;2023-02-23T05:30:21;8.48;;;7.60;;
20090;SDS011;10205;49.678;6.560;2023-02-23T05:32:48;8.23;;;7.43;;
20090;SDS011;10205;49.678;6.560;2023-02-23T05:35:17;7.43;;;6.63;;
20090;SDS011;10205;49.678;6.560;2023-02-23T05:37:44;9.00;;;7.32;;
20090;SDS011;10205;49.678;6.560;2023-02-23T05:40:12;7.88;;;7.13;;
20090;SDS011;10205;49.678;6.560;2023-02-23T05:42:40;8.02;;;7.03;;
20090;SDS011;10205;49.678;6.560;2023-02-23T05:45:09;8.93;;;7.03;;
20090;SDS011;10205;49.678;6.560;2023-02-23T05:47:36;7.50;;;6.75;;
20090;SDS011;10205;49.678;6.560;2023-02-23T05:50:04;7.40;;;6.70;;
20090;SDS011;10205;49.678;6.560;2023-02-23T05:52:33;7.78;;;7.00;;
20090;SDS011;10205;49.678;6.560;2023-02-23T05:55:06;8.23;;;7.25;;
20090;SDS011;10205;49.678;6.560;2023-02-23T05:57:35;8.27;;;6.97;;
20090;SDS011;10205;49.678;6.560;2023-02-23T06:00:08;7.07;;;6.38;;
20090;SDS011;10205;49.678;6.560;2023-02-23T06:02:38;7.55;;;6.70;;
20090;SDS011;10205;49.678;6.560;2023-02-23T06:05:06;6.97;;;6.28;;
20090;SDS011;10205;49.678;6.560;2023-02-23T06:07:34;8.13;;;7.07;;
20090;SDS011;10205;49.678;6.560;2023-02-23T06:10:04;8.57;;;7.07;;
20090;SDS011;10205;49.678;6.560;2023-02-23T06:12:33;9.00;;;7.15;;
20090;SDS011;10205;49.678;6.560;2023-02-23T06:15:00;7.97;;;6.65;;
20090;SDS011;10205;49.678;6.560;2023-02-23T06:17:29;8.23;;;6.87;;
20090;SDS011;10205;49.678;6.560;2023-02-23T06:19:56;7.80;;;7.00;;
20090;SDS011;10205;49.678;6.560;2023-02-23T06:22:26;7.95;;;7.15;;
20090;SDS011;10205;49.678;6.560;2023-02-23T06:24:55;7.30;;;6.53;;
20090;SDS011;10205;49.678;6.560;2023-02-23T06:27:22;7.82;;;7.03;;
20090;SDS011;10205;49.678;6.560;2023-02-23T06:29:53;7.53;;;6.72;;
20090;SDS011;10205;49.678;6.560;2023-02-23T06:32:21;9.80;;;7.97;;
20090;SDS011;10205;49.678;6.560;2023-02-23T06:34:49;8.80;;;7.68;;
20090;SDS011;10205;49.678;6.560;2023-02-23T06:37:16;8.00;;;7.20;;
20090;SDS011;10205;49.678;6.560;2023-02-23T06:39:44;7.40;;;6.70;;
20090;SDS011;10205;49.678;6.560;2023-02-23T06:42:12;7.32;;;6.63;;
20090;SDS011;10205;49.678;6.560;2023-02-23T06:44:40;7.78;;;6.80;;
20090;SDS011;10205;49.678;6.560;2023-02-23T06:47:07;7.32;;;6.50;;
20090;SDS011;10205;49.678;6.560;2023-02-23T06:49:37;8.18;;;7.32;;
20090;SDS011;10205;49.678;6.560;2023-02-23T06:52:14;8.17;;;7.37;;
20090;SDS011;10205;49.678;6.560;2023-02-23T06:54:41;8.35;;;6.72;;
20090;SDS011;10205;49.678;6.560;2023-02-23T06:57:08;8.10;;;7.07;;
20090;SDS011;10205;49.678;6.560;2023-02-23T06:59:36;7.97;;;7.17;;
20090;SDS011;10205;49.678;6.560;2023-02-23T07:02:03;7.03;;;6.32;;
20090;SDS011;10205;49.678;6.560;2023-02-23T07:04:30;7.47;;;6.68;;
20090;SDS011;10205;49.678;6.560;2023-02-23T07:06:58;8.35;;;7.43;;
20090;SDS011;10205;49.678;6.560;2023-02-23T07:09:28;7.93;;;6.78;;
20090;SDS011;10205;49.678;6.560;2023-02-23T07:11:57;8.52;;;6.88;;
20090;SDS011;10205;49.678;6.560;2023-02-23T07:14:25;10.15;;;7.70;;
20090;SDS011;10205;49.678;6.560;2023-02-23T07:16:54;8.48;;;7.63;;
20090;SDS011;10205;49.678;6.560;2023-02-23T07:19:24;9.98;;;7.95;;
20090;SDS011;10205;49.678;6.560;2023-02-23T07:21:51;12.32;;;8.48;;
20090;SDS011;10205;49.678;6.560;2023-02-23T07:24:18;10.93;;;8.98;;
20090;SDS011;10205;49.678;6.560;2023-02-23T07:26:48;8.15;;;7.35;;
20090;SDS011;10205;49.678;6.560;2023-02-23T07:29:16;7.90;;;7.00;;
20090;SDS011;10205;49.678;6.560;2023-02-23T07:31:44;10.93;;;7.93;;
20090;SDS011;10205;49.678;6.560;2023-02-23T07:34:14;9.20;;;8.10;;
20090;SDS011;10205;49.678;6.560;2023-02-23T07:36:47;7.78;;;6.95;;
20090;SDS011;10205;49.678;6.560;2023-02-23T07:39:15;9.18;;;7.20;;
20090;SDS011;10205;49.678;6.560;2023-02-23T07:41:42;12.50;;;9.40;;
20090;SDS011;10205;49.678;6.560;2023-02-23T07:44:11;8.77;;;7.10;;
20090;SDS011;10205;49.678;6.560;2023-02-23T07:46:39;11.13;;;9.00;;
20090;SDS011;10205;49.678;6.560;2023-02-23T07:49:08;9.30;;;8.37;;
20090;SDS011;10205;49.678;6.560;2023-02-23T07:51:38;11.03;;;9.07;;
20090;SDS011;10205;49.678;6.560;2023-02-23T07:54:06;12.53;;;9.30;;
20090;SDS011;10205;49.678;6.560;2023-02-23T07:56:34;12.33;;;9.90;;
20090;SDS011;10205;49.678;6.560;2023-02-23T07:59:02;12.93;;;10.03;;
20090;SDS011;10205;49.678;6.560;2023-02-23T08:01:31;13.37;;;10.30;;
20090;SDS011;10205;49.678;6.560;2023-02-23T08:03:58;13.73;;;10.43;;
20090;SDS011;10205;49.678;6.560;2023-02-23T08:06:25;14.10;;;10.47;;
20090;SDS011;10205;49.678;6.560;2023-02-23T08:08:55;12.53;;;9.87;;
20090;SDS011;10205;49.678;6.560;2023-02-23T08:11:28;12.70;;;9.30;;
20090;SDS011;10205;49.678;6.560;2023-02-23T08:13:59;10.10;;;8.60;;
20090;SDS011;10205;49.678;6.560;2023-02-23T08:16:27;11.53;;;9.47;;
20090;SDS011;10205;49.678;6.560;2023-02-23T08:18:58;10.73;;;8.23;;
20090;SDS011;10205;49.678;6.560;2023-02-23T08:21:26;10.30;;;9.05;;
20090;SDS011;10205;49.678;6.560;2023-02-23T08:23:54;11.45;;;9.13;;
20090;SDS011;10205;49.678;6.560;2023-02-23T08:26:22;10.52;;;9.43;;
20090;SDS011;10205;49.678;6.560;2023-02-23T08:28:51;12.77;;;8.93;;
20090;SDS011;10205;49.678;6.560;2023-02-23T08:31:19;14.48;;;9.63;;
20090;SDS011;10205;49.678;6.560;2023-02-23T08:33:47;11.00;;;9.35;;
20090;SDS011;10205;49.678;6.560;2023-02-23T08:36:17;13.07;;;9.63;;
20090;SDS011;10205;49.678;6.560;2023-02-23T08:38:45;12.17;;;9.57;;
20090;SDS011;10205;49.678;6.560;2023-02-23T08:41:12;15.02;;;10.75;;
20090;SDS011;10205;49.678;6.560;2023-02-23T08:43:40;11.05;;;9.63;;
20090;SDS011;10205;49.678;6.560;2023-02-23T08:46:07;12.77;;;10.13;;
20090;SDS011;10205;49.678;6.560;2023-02-23T08:48:34;13.48;;;9.98;;
20090;SDS011;10205;49.678;6.560;2023-02-23T08:51:04;17.70;;;11.75;;
20090;SDS011;10205;49.678;6.560;2023-02-23T08:53:34;14.25;;;11.35;;
20090;SDS011;10205;49.678;6.560;2023-02-23T08:56:04;14.95;;;10.82;;
20090;SDS011;10205;49.678;6.560;2023-02-23T08:58:33;13.43;;;10.35;;
20090;SDS011;10205;49.678;6.560;2023-02-23T09:01:01;14.80;;;9.68;;
20090;SDS011;10205;49.678;6.560;2023-02-23T09:03:29;15.40;;;10.00;;
20090;SDS011;10205;49.678;6.560;2023-02-23T09:06:03;13.57;;;10.55;;
20090;SDS011;10205;49.678;6.560;2023-02-23T09:08:34;13.98;;;11.23;;
20090;SDS011;10205;49.678;6.560;2023-02-23T09:11:02;15.30;;;11.07;;
20090;SDS011;10205;49.678;6.560;2023-02-23T09:13:30;14.27;;;11.37;;
20090;SDS011;10205;49.678;6.560;2023-02-23T09:15:57;15.60;;;11.80;;
20090;SDS011;10205;49.678;6.560;2023-02-23T09:18:24;12.02;;;10.35;;
20090;SDS011;10205;49.678;6.560;2023-02-23T09:20:53;13.88;;;10.82;;
20090;SDS011;10205;49.678;6.560;2023-02-23T09:23:21;12.75;;;10.52;;
20090;SDS011;10205;49.678;6.560;2023-02-23T09:25:50;13.93;;;9.68;;
20090;SDS011;10205;49.678;6.560;2023-02-23T09:28:18;14.00;;;10.88;;
20090;SDS011;10205;49.678;6.560;2023-02-23T09:30:45;10.52;;;9.13;;
20090;SDS011;10205;49.678;6.560;2023-02-23T09:33:13;13.95;;;10.77;;
20090;SDS011;10205;49.678;6.560;2023-02-23T09:35:41;12.85;;;10.20;;
20090;SDS011;10205;49.678;6.560;2023-02-23T09:38:08;11.95;;;9.80;;
20090;SDS011;10205;49.678;6.560;2023-02-23T09:40:36;15.50;;;11.68;;
20090;SDS011;10205;49.678;6.560;2023-02-23T09:43:22;14.52;;;10.52;;
20090;SDS011;10205;49.678;6.560;2023-02-23T09:46:00;14.00;;;11.20;;
20090;SDS011;10205;49.678;6.560;2023-02-23T09:48:45;12.67;;;9.93;;
20090;SDS011;10205;49.678;6.560;2023-02-23T09:51:18;15.73;;;11.43;;
20090;SDS011;10205;49.678;6.560;2023-02-23T09:53:48;15.02;;;11.68;;
20090;SDS011;10205;49.678;6.560;2023-02-23T09:56:23;12.23;;;9.68;;
20090;SDS011;10205;49.678;6.560;2023-02-23T09:59:01;12.03;;;9.60;;
20090;SDS011;10205;49.678;6.560;2023-02-23T10:01:38;14.47;;;11.20;;
20090;SDS011;10205;49.678;6.560;2023-02-23T10:04:20;13.40;;;10.18;;
20090;SDS011;10205;49.678;6.560;2023-02-23T10:06:53;16.38;;;11.25;;
20090;SDS011;10205;49.678;6.560;2023-02-23T10:09:35;13.98;;;10.82;;
20090;SDS011;10205;49.678;6.560;2023-02-23T10:12:21;13.85;;;11.40;;
20090;SDS011;10205;49.678;6.560;2023-02-23T10:17:53;11.52;;;9.88;;
20090;SDS011;10205;49.678;6.560;2023-02-23T10:20:32;14.23;;;10.67;;
20090;SDS011;10205;49.678;6.560;2023-02-23T10:23:13;14.90;;;10.60;;
20090;SDS011;10205;49.678;6.560;2023-02-23T10:25:47;16.90;;;10.67;;
20090;SDS011;10205;49.678;6.560;2023-02-23T10:28:20;16.47;;;12.93;;
20090;SDS011;10205;49.678;6.560;2023-02-23T10:30:49;15.77;;;11.80;;
20090;SDS011;10205;49.678;6.560;2023-02-23T10:33:21;14.77;;;11.38;;
20090;SDS011;10205;49.678;6.560;2023-02-23T10:35:59;15.90;;;11.60;;
20090;SDS011;10205;49.678;6.560;2023-02-23T10:38:40;15.83;;;11.57;;
20090;SDS011;10205;49.678;6.560;2023-02-23T10:41:08;16.63;;;11.60;;
20090;SDS011;10205;49.678;6.560;2023-02-23T10:43:37;14.63;;;11.82;;
20090;SDS011;10205;49.678;6.560;2023-02-23T10:46:06;12.13;;;9.95;;
20090;SDS011;10205;49.678;6.560;2023-02-23T10:48:42;12.52;;;9.95;;
20090;SDS011;10205;49.678;6.560;2023-02-23T10:51:12;15.18;;;11.40;;
20090;SDS011;10205;49.678;6.560;2023-02-23T10:53:47;13.32;;;10.18;;
20090;SDS011;10205;49.678;6.560;2023-02-23T10:56:15;12.88;;;10.27;;
20090;SDS011;10205;49.678;6.560;2023-02-23T10:58:45;15.32;;;11.63;;
20090;SDS011;10205;49.678;6.560;2023-02-23T11:01:16;13.15;;;10.73;;
20090;SDS011;10205;49.678;6.560;2023-02-23T11:04:12;14.43;;;11.38;;
20090;SDS011;10205;49.678;6.560;2023-02-23T11:07:04;13.30;;;10.75;;
20090;SDS011;10205;49.678;6.560;2023-02-23T11:09:34;16.67;;;11.60;;
20090;SDS011;10205;49.678;6.560;2023-02-23T11:12:02;14.82;;;11.45;;
20090;SDS011;10205;49.678;6.560;2023-02-23T11:14:45;12.60;;;10.60;;
20090;SDS011;10205;49.678;6.560;2023-02-23T11:17:29;15.15;;;10.38;;
20090;SDS011;10205;49.678;6.560;2023-02-23T11:20:00;11.93;;;9.60;;
20090;SDS011;10205;49.678;6.560;2023-02-23T11:22:33;15.52;;;11.38;;
20090;SDS011;10205;49.678;6.560;2023-02-23T11:25:03;14.65;;;11.18;;
20090;SDS011;10205;49.678;6.560;2023-02-23T11:27:44;14.18;;;10.88;;
20090;SDS011;10205;49.678;6.560;2023-02-23T11:30:16;13.68;;;10.30;;
20090;SDS011;10205;49.678;6.560;2023-02-23T11:32:50;13.25;;;10.32;;
20090;SDS011;10205;49.678;6.560;2023-02-23T11:35:26;15.07;;;10.93;;
20090;SDS011;10205;49.678;6.560;2023-02-23T11:37:56;15.88;;;12.32;;
20090;SDS011;10205;49.678;6.560;2023-02-23T11:40:24;14.77;;;11.85;;
20090;SDS011;10205;49.678;6.560;2023-02-23T11:42:55;13.05;;;10.27;;
20090;SDS011;10205;49.678;6.560;2023-02-23T11:45:33;13.43;;;11.15;;
20090;SDS011;10205;49.678;6.560;2023-02-23T11:48:19;13.27;;;11.82;;
20090;SDS011;10205;49.678;6.560;2023-02-23T11:50:52;14.50;;;11.43;;
20090;SDS011;10205;49.678;6.560;2023-02-23T11:53:24;15.30;;;11.43;;
20090;SDS011;10205;49.678;6.560;2023-02-23T11:55:57;12.85;;;11.23;;
20090;SDS011;10205;49.678;6.560;2023-02-23T11:58:33;14.48;;;11.10;;
20090;SDS011;10205;49.678;6.560;2023-02-23T12:01:07;13.15;;;10.32;;
20090;SDS011;10205;49.678;6.560;2023-02-23T12:03:43;13.55;;;10.13;;
20090;SDS011;10205;49.678;6.560;2023-02-23T12:06:24;11.82;;;10.05;;
20090;SDS011;10205;49.678;6.560;2023-02-23T12:08:54;12.68;;;10.07;;
20090;SDS011;10205;49.678;6.560;2023-02-23T12:11:30;15.48;;;11.45;;
20090;SDS011;10205;49.678;6.560;2023-02-23T12:14:02;12.70;;;10.75;;
20090;SDS011;10205;49.678;6.560;2023-02-23T12:16:41;12.55;;;10.30;;
20090;SDS011;10205;49.678;6.560;2023-02-23T12:22:03;13.35;;;10.90;;
20090;SDS011;10205;49.678;6.560;2023-02-23T12:24:39;16.48;;;11.93;;
20090;SDS011;10205;49.678;6.560;2023-02-23T12:27:14;14.68;;;12.15;;
20090;SDS011;10205;49.678;6.560;2023-02-23T12:29:54;12.23;;;10.25;;
20090;SDS011;10205;49.678;6.560;2023-02-23T12:32:38;15.13;;;11.07;;
20090;SDS011;10205;49.678;6.560;2023-02-23T12:35:20;14.23;;;11.25;;
20090;SDS011;10205;49.678;6.560;2023-02-23T12:37:55;17.15;;;11.25;;
20090;SDS011;10205;49.678;6.560;2023-02-23T12:40:40;14.40;;;10.77;;
20090;SDS011;10205;49.678;6.560;2023-02-23T12:43:10;13.50;;;10.80;;
20090;SDS011;10205;49.678;6.560;2023-02-23T12:45:49;12.73;;;10.30;;
20090;SDS011;10205;49.678;6.560;2023-02-23T12:48:24;12.35;;;9.60;;
20090;SDS011;10205;49.678;6.560;2023-02-23T12:51:05;14.18;;;11.25;;
20090;SDS011;10205;49.678;6.560;2023-02-23T12:53:44;14.35;;;10.07;;
20090;SDS011;10205;49.678;6.560;2023-02-23T12:56:14;12.82;;;10.70;;
20090;SDS011;10205;49.678;6.560;2023-02-23T12:58:58;12.75;;;10.32;;
20090;SDS011;10205;49.678;6.560;2023-02-23T13:01:51;12.20;;;10.05;;
20090;SDS011;10205;49.678;6.560;2023-02-23T13:04:28;14.13;;;10.77;;
20090;SDS011;10205;49.678;6.560;2023-02-23T13:07:27;13.77;;;10.65;;
20090;SDS011;10205;49.678;6.560;2023-02-23T13:10:09;12.10;;;9.77;;
20090;SDS011;10205;49.678;6.560;2023-02-23T13:12:54;12.63;;;9.60;;
20090;SDS011;10205;49.678;6.560;2023-02-23T13:15:31;12.50;;;10.00;;
20090;SDS011;10205;49.678;6.560;2023-02-23T13:18:17;11.27;;;9.93;;
20090;SDS011;10205;49.678;6.560;2023-02-23T13:20:54;12.48;;;9.63;;
20090;SDS011;10205;49.678;6.560;2023-02-23T13:23:31;12.10;;;9.85;;
20090;SDS011;10205;49.678;6.560;2023-02-23T13:26:09;13.30;;;10.52;;
20090;SDS011;10205;49.678;6.560;2023-02-23T13:28:51;12.43;;;10.82;;
20090;SDS011;10205;49.678;6.560;2023-02-23T13:31:26;12.02;;;10.43;;
20090;SDS011;10205;49.678;6.560;2023-02-23T13:34:00;12.95;;;10.52;;
20090;SDS011;10205;49.678;6.560;2023-02-23T13:36:31;12.35;;;10.45;;
20090;SDS011;10205;49.678;6.560;2023-02-23T13:39:10;12.63;;;10.48;;
20090;SDS011;10205;49.678;6.560;2023-02-23T13:42:09;11.63;;;10.20;;
20090;SDS011;10205;49.678;6.560;2023-02-23T13:44:54;11.88;;;9.90;;
20090;SDS011;10205;49.678;6.560;2023-02-23T13:47:43;12.20;;;10.02;;
20090;SDS011;10205;49.678;6.560;2023-02-23T13:50:20;12.88;;;9.85;;
20090;SDS011;10205;49.678;6.560;2023-02-23T13:53:00;11.20;;;9.80;;
20090;SDS011;10205;49.678;6.560;2023-02-23T13:58:18;11.52;;;9.35;;
20090;SDS011;10205;49.678;6.560;2023-02-23T14:00:53;12.73;;;10.73;;
20090;SDS011;10205;49.678;6.560;2023-02-23T14:03:35;11.32;;;9.82;;
20090;SDS011;10205;49.678;6.560;2023-02-23T14:06:11;11.15;;;9.50;;
20090;SDS011;10205;49.678;6.560;2023-02-23T14:08:43;13.93;;;10.60;;
20090;SDS011;10205;49.678;6.560;2023-02-23T14:11:29;12.55;;;9.50;;
20090;SDS011;10205;49.678;6.560;2023-02-23T14:14:09;12.20;;;10.00;;
20090;SDS011;10205;49.678;6.560;2023-02-23T14:16:41;14.30;;;9.73;;
20090;SDS011;10205;49.678;6.560;2023-02-23T14:19:31;12.15;;;10.43;;
20090;SDS011;10205;49.678;6.560;2023-02-23T14:22:04;12.77;;;9.50;;
20090;SDS011;10205;49.678;6.560;2023-02-23T14:24:36;11.80;;;9.13;;
20090;SDS011;10205;49.678;6.560;2023-02-23T14:27:14;13.90;;;9.68;;
20090;SDS011;10205;49.678;6.560;2023-02-23T14:30:11;11.10;;;9.15;;
20090;SDS011;10205;49.678;6.560;2023-02-23T14:32:49;12.07;;;9.52;;
20090;SDS011;10205;49.678;6.560;2023-02-23T14:35:36;10.80;;;9.13;;
20090;SDS011;10205;49.678;6.560;2023-02-23T14:38:11;11.00;;;8.98;;
20090;SDS011;10205;49.678;6.560;2023-02-23T14:40:52;12.32;;;10.05;;
20090;SDS011;10205;49.678;6.560;2023-02-23T14:43:32;11.40;;;9.23;;
20090;SDS011;10205;49.678;6.560;2023-02-23T14:46:12;11.57;;;9.20;;
20090;SDS011;10205;49.678;6.560;2023-02-23T14:48:54;13.88;;;10.55;;
20090;SDS011;10205;49.678;6.560;2023-02-23T14:51:29;12.27;;;9.60;;
20090;SDS011;10205;49.678;6.560;2023-02-23T14:54:18;12.23;;;9.38;;
20090;SDS011;10205;49.678;6.560;2023-02-23T14:56:55;11.70;;;9.25;;
20090;SDS011;10205;49.678;6.560;2023-02-23T14:59:26;12.18;;;8.93;;
20090;SDS011;10205;49.678;6.560;2023-02-23T15:02:05;11.25;;;9.82;;
20090;SDS011;10205;49.678;6.560;2023-02-23T15:04:37;11.65;;;9.60;;
20090;SDS011;10205;49.678;6.560;2023-02-23T15:07:08;11.85;;;9.88;;
20090;SDS011;10205;49.678;6.560;2023-02-23T15:09:48;12.43;;;9.23;;
20090;SDS011;10205;49.678;6.560;2023-02-23T15:12:19;10.38;;;9.27;;
20090;SDS011;10205;49.678;6.560;2023-02-23T15:14:54;12.10;;;10.00;;
20090;SDS011;10205;49.678;6.560;2023-02-23T15:17:26;11.82;;;9.18;;
20090;SDS011;10205;49.678;6.560;2023-02-23T15:19:57;12.38;;;9.88;;
20090;SDS011;10205;49.678;6.560;2023-02-23T15:22:29;11.13;;;9.63;;
20090;SDS011;10205;49.678;6.560;2023-02-23T15:25:05;11.10;;;9.82;;
20090;SDS011;10205;49.678;6.560;2023-02-23T15:27:41;13.15;;;9.38;;
20090;SDS011;10205;49.678;6.560;2023-02-23T15:30:21;12.25;;;9.68;;
20090;SDS011;10205;49.678;6.560;2023-02-23T15:32:58;11.55;;;8.65;;
20090;SDS011;10205;49.678;6.560;2023-02-23T15:35:28;10.77;;;9.18;;
20090;SDS011;10205;49.678;6.560;2023-02-23T15:37:57;12.32;;;9.25;;